sensor_id;sensor_type;location;lat;lon;timestamp;P1;durP1;ratioP1;P2;durP2;ratioP2
11998;SDS011;40817;51.520;9.954;2022-08-19T00:01:51;17.02;;;12.75;;
11998;SDS011;40817;51.520;9.954;2022-08-19T00:04:22;16.90;;;12.70;;
11998;SDS011;40817;51.520;9.954;2022-08-19T00:06:53;18.15;;;13.07;;
11998;SDS011;40817;51.520;9.954;2022-08-19T00:09:22;14.95;;;12.07;;
11998;SDS011;40817;51.520;9.954;2022-08-19T00:11:51;16.02;;;12.15;;
11998;SDS011;40817;51.520;9.954;2022-08-19T00:14:22;15.93;;;11.90;;
11998;SDS011;40817;51.520;9.954;2022-08-19T00:16:53;13.73;;;12.23;;
11998;SDS011;40817;51.520;9.954;2022-08-19T00:19:22;16.30;;;11.95;;
11998;SDS011;40817;51.520;9.954;2022-08-19T00:21:50;15.70;;;11.45;;
11998;SDS011;40817;51.520;9.954;2022-08-19T00:24:19;13.32;;;10.88;;
11998;SDS011;40817;51.520;9.954;2022-08-19T00:26:48;13.40;;;11.35;;
11998;SDS011;40817;51.520;9.954;2022-08-19T00:29:17;15.63;;;10.32;;
11998;SDS011;40817;51.520;9.954;2022-08-19T00:31:47;12.13;;;9.43;;
11998;SDS011;40817;51.520;9.954;2022-08-19T00:34:16;11.20;;;8.63;;
11998;SDS011;40817;51.520;9.954;2022-08-19T00:36:45;17.50;;;9.65;;
11998;SDS011;40817;51.520;9.954;2022-08-19T00:39:15;10.60;;;8.95;;
11998;SDS011;40817;51.520;9.954;2022-08-19T00:41:44;12.93;;;8.18;;
11998;SDS011;40817;51.520;9.954;2022-08-19T00:44:17;16.33;;;8.15;;
11998;SDS011;40817;51.520;9.954;2022-08-19T00:46:49;10.93;;;8.13;;
11998;SDS011;40817;51.520;9.954;2022-08-19T00:49:22;14.48;;;8.48;;
11998;SDS011;40817;51.520;9.954;2022-08-19T00:51:57;13.27;;;7.75;;
11998;SDS011;40817;51.520;9.954;2022-08-19T00:54:30;13.18;;;7.72;;
11998;SDS011;40817;51.520;9.954;2022-08-19T00:56:58;12.30;;;8.13;;
11998;SDS011;40817;51.520;9.954;2022-08-19T00:59:28;12.25;;;7.57;;
11998;SDS011;40817;51.520;9.954;2022-08-19T01:01:56;12.00;;;8.10;;
11998;SDS011;40817;51.520;9.954;2022-08-19T01:04:26;12.60;;;8.27;;
11998;SDS011;40817;51.520;9.954;2022-08-19T01:06:53;9.43;;;7.63;;
11998;SDS011;40817;51.520;9.954;2022-08-19T01:09:24;10.38;;;7.25;;
11998;SDS011;40817;51.520;9.954;2022-08-19T01:11:52;10.90;;;7.35;;
11998;SDS011;40817;51.520;9.954;2022-08-19T01:14:24;13.15;;;8.02;;
11998;SDS011;40817;51.520;9.954;2022-08-19T01:16:52;14.35;;;7.57;;
11998;SDS011;40817;51.520;9.954;2022-08-19T01:19:24;12.13;;;7.47;;
11998;SDS011;40817;51.520;9.954;2022-08-19T01:22:01;11.30;;;7.03;;
11998;SDS011;40817;51.520;9.954;2022-08-19T01:24:39;11.60;;;7.45;;
11998;SDS011;40817;51.520;9.954;2022-08-19T01:27:07;10.77;;;7.72;;
11998;SDS011;40817;51.520;9.954;2022-08-19T01:29:43;12.50;;;7.65;;
11998;SDS011;40817;51.520;9.954;2022-08-19T01:32:14;10.60;;;7.53;;
11998;SDS011;40817;51.520;9.954;2022-08-19T01:34:44;10.43;;;7.25;;
11998;SDS011;40817;51.520;9.954;2022-08-19T01:37:13;11.80;;;7.43;;
11998;SDS011;40817;51.520;9.954;2022-08-19T01:39:43;10.55;;;7.63;;
11998;SDS011;40817;51.520;9.954;2022-08-19T01:42:11;11.50;;;7.82;;
11998;SDS011;40817;51.520;9.954;2022-08-19T01:44:39;11.45;;;8.13;;
11998;SDS011;40817;51.520;9.954;2022-08-19T01:47:08;14.70;;;7.78;;
11998;SDS011;40817;51.520;9.954;2022-08-19T01:49:35;11.85;;;7.95;;
11998;SDS011;40817;51.520;9.954;2022-08-19T01:52:04;9.00;;;6.65;;
11998;SDS011;40817;51.520;9.954;2022-08-19T01:54:33;21.30;;;8.82;;
11998;SDS011;40817;51.520;9.954;2022-08-19T01:57:02;13.27;;;7.63;;
11998;SDS011;40817;51.520;9.954;2022-08-19T01:59:35;10.93;;;7.13;;
11998;SDS011;40817;51.520;9.954;2022-08-19T02:02:04;10.65;;;8.48;;
11998;SDS011;40817;51.520;9.954;2022-08-19T02:04:33;11.80;;;7.55;;
11998;SDS011;40817;51.520;9.954;2022-08-19T02:07:03;12.50;;;7.45;;
11998;SDS011;40817;51.520;9.954;2022-08-19T02:09:33;9.38;;;6.95;;
11998;SDS011;40817;51.520;9.954;2022-08-19T02:12:03;10.88;;;7.47;;
11998;SDS011;40817;51.520;9.954;2022-08-19T02:14:34;9.65;;;7.05;;
11998;SDS011;40817;51.520;9.954;2022-08-19T02:17:02;10.98;;;7.15;;
11998;SDS011;40817;51.520;9.954;2022-08-19T02:19:30;12.07;;;7.05;;
11998;SDS011;40817;51.520;9.954;2022-08-19T02:21:58;11.63;;;7.05;;
11998;SDS011;40817;51.520;9.954;2022-08-19T02:24:27;10.80;;;6.45;;
11998;SDS011;40817;51.520;9.954;2022-08-19T02:26:55;11.70;;;5.90;;
11998;SDS011;40817;51.520;9.954;2022-08-19T02:29:25;10.90;;;5.90;;
11998;SDS011;40817;51.520;9.954;2022-08-19T02:31:53;11.15;;;6.22;;
11998;SDS011;40817;51.520;9.954;2022-08-19T02:34:20;10.05;;;6.63;;
11998;SDS011;40817;51.520;9.954;2022-08-19T02:36:50;9.82;;;6.75;;
11998;SDS011;40817;51.520;9.954;2022-08-19T02:39:18;9.20;;;6.32;;
11998;SDS011;40817;51.520;9.954;2022-08-19T02:41:45;8.77;;;5.90;;
11998;SDS011;40817;51.520;9.954;2022-08-19T02:44:15;8.95;;;5.72;;
11998;SDS011;40817;51.520;9.954;2022-08-19T02:46:44;9.82;;;5.93;;
11998;SDS011;40817;51.520;9.954;2022-08-19T02:49:16;7.53;;;5.65;;
11998;SDS011;40817;51.520;9.954;2022-08-19T02:51:44;10.15;;;5.72;;
11998;SDS011;40817;51.520;9.954;2022-08-19T02:54:13;8.90;;;6.07;;
11998;SDS011;40817;51.520;9.954;2022-08-19T02:56:43;7.65;;;5.90;;
11998;SDS011;40817;51.520;9.954;2022-08-19T02:59:12;11.13;;;6.45;;
11998;SDS011;40817;51.520;9.954;2022-08-19T03:01:40;10.40;;;5.90;;
11998;SDS011;40817;51.520;9.954;2022-08-19T03:04:11;11.57;;;5.80;;
11998;SDS011;40817;51.520;9.954;2022-08-19T03:06:43;9.70;;;5.60;;
11998;SDS011;40817;51.520;9.954;2022-08-19T03:09:13;9.80;;;6.05;;
11998;SDS011;40817;51.520;9.954;2022-08-19T03:11:42;12.18;;;6.13;;
11998;SDS011;40817;51.520;9.954;2022-08-19T03:14:10;10.73;;;5.90;;
11998;SDS011;40817;51.520;9.954;2022-08-19T03:16:41;9.07;;;5.75;;
11998;SDS011;40817;51.520;9.954;2022-08-19T03:19:20;7.80;;;5.75;;
11998;SDS011;40817;51.520;9.954;2022-08-19T03:21:48;9.38;;;5.90;;
11998;SDS011;40817;51.520;9.954;2022-08-19T03:24:17;9.73;;;5.82;;
11998;SDS011;40817;51.520;9.954;2022-08-19T03:26:46;10.13;;;6.15;;
11998;SDS011;40817;51.520;9.954;2022-08-19T03:29:17;9.50;;;5.45;;
11998;SDS011;40817;51.520;9.954;2022-08-19T03:31:46;11.77;;;5.75;;
11998;SDS011;40817;51.520;9.954;2022-08-19T03:34:16;8.95;;;5.72;;
11998;SDS011;40817;51.520;9.954;2022-08-19T03:36:51;8.93;;;5.20;;
11998;SDS011;40817;51.520;9.954;2022-08-19T03:39:20;9.77;;;5.82;;
11998;SDS011;40817;51.520;9.954;2022-08-19T03:41:50;9.13;;;6.15;;
11998;SDS011;40817;51.520;9.954;2022-08-19T03:44:22;6.35;;;5.43;;
11998;SDS011;40817;51.520;9.954;2022-08-19T03:46:51;7.80;;;5.22;;
11998;SDS011;40817;51.520;9.954;2022-08-19T03:49:24;6.78;;;4.57;;
11998;SDS011;40817;51.520;9.954;2022-08-19T03:51:56;5.75;;;4.28;;
11998;SDS011;40817;51.520;9.954;2022-08-19T03:54:25;6.00;;;4.30;;
11998;SDS011;40817;51.520;9.954;2022-08-19T03:56:55;7.57;;;4.22;;
11998;SDS011;40817;51.520;9.954;2022-08-19T03:59:25;7.57;;;4.15;;
11998;SDS011;40817;51.520;9.954;2022-08-19T04:01:58;8.60;;;3.65;;
11998;SDS011;40817;51.520;9.954;2022-08-19T04:04:31;8.02;;;4.28;;
11998;SDS011;40817;51.520;9.954;2022-08-19T04:06:58;5.43;;;3.30;;
11998;SDS011;40817;51.520;9.954;2022-08-19T04:09:26;9.70;;;3.75;;
11998;SDS011;40817;51.520;9.954;2022-08-19T04:11:55;4.60;;;3.40;;
11998;SDS011;40817;51.520;9.954;2022-08-19T04:14:25;6.25;;;3.28;;
11998;SDS011;40817;51.520;9.954;2022-08-19T04:16:57;6.22;;;3.35;;
11998;SDS011;40817;51.520;9.954;2022-08-19T04:19:28;5.68;;;3.47;;
11998;SDS011;40817;51.520;9.954;2022-08-19T04:21:59;6.05;;;3.75;;
11998;SDS011;40817;51.520;9.954;2022-08-19T04:24:27;5.70;;;3.65;;
11998;SDS011;40817;51.520;9.954;2022-08-19T04:26:55;5.75;;;4.20;;
11998;SDS011;40817;51.520;9.954;2022-08-19T04:29:24;7.50;;;4.10;;
11998;SDS011;40817;51.520;9.954;2022-08-19T04:31:53;6.38;;;4.28;;
11998;SDS011;40817;51.520;9.954;2022-08-19T04:34:24;7.55;;;4.85;;
11998;SDS011;40817;51.520;9.954;2022-08-19T04:36:57;5.82;;;4.00;;
11998;SDS011;40817;51.520;9.954;2022-08-19T04:39:27;6.97;;;4.20;;
11998;SDS011;40817;51.520;9.954;2022-08-19T04:42:11;7.43;;;4.20;;
11998;SDS011;40817;51.520;9.954;2022-08-19T04:44:56;8.00;;;4.22;;
11998;SDS011;40817;51.520;9.954;2022-08-19T04:47:24;6.97;;;4.50;;
11998;SDS011;40817;51.520;9.954;2022-08-19T04:49:52;6.72;;;4.43;;
11998;SDS011;40817;51.520;9.954;2022-08-19T04:52:21;8.02;;;4.70;;
11998;SDS011;40817;51.520;9.954;2022-08-19T04:54:49;6.60;;;4.43;;
11998;SDS011;40817;51.520;9.954;2022-08-19T04:57:17;8.80;;;5.03;;
11998;SDS011;40817;51.520;9.954;2022-08-19T04:59:44;7.03;;;3.80;;
11998;SDS011;40817;51.520;9.954;2022-08-19T05:02:12;6.70;;;4.10;;
11998;SDS011;40817;51.520;9.954;2022-08-19T05:04:40;7.55;;;3.88;;
11998;SDS011;40817;51.520;9.954;2022-08-19T05:07:08;9.60;;;4.03;;
11998;SDS011;40817;51.520;9.954;2022-08-19T05:09:37;7.40;;;3.88;;
11998;SDS011;40817;51.520;9.954;2022-08-19T05:12:05;8.30;;;4.18;;
11998;SDS011;40817;51.520;9.954;2022-08-19T05:14:33;5.30;;;3.90;;
11998;SDS011;40817;51.520;9.954;2022-08-19T05:17:01;8.32;;;3.83;;
11998;SDS011;40817;51.520;9.954;2022-08-19T05:19:29;5.13;;;3.72;;
11998;SDS011;40817;51.520;9.954;2022-08-19T05:22:15;7.22;;;3.80;;
11998;SDS011;40817;51.520;9.954;2022-08-19T05:25:04;6.00;;;3.95;;
11998;SDS011;40817;51.520;9.954;2022-08-19T05:27:38;5.88;;;3.20;;
11998;SDS011;40817;51.520;9.954;2022-08-19T05:30:08;4.47;;;3.10;;
11998;SDS011;40817;51.520;9.954;2022-08-19T05:32:38;4.78;;;3.40;;
11998;SDS011;40817;51.520;9.954;2022-08-19T05:35:07;6.78;;;2.78;;
11998;SDS011;40817;51.520;9.954;2022-08-19T05:37:36;4.85;;;2.80;;
11998;SDS011;40817;51.520;9.954;2022-08-19T05:40:07;6.55;;;3.47;;
11998;SDS011;40817;51.520;9.954;2022-08-19T05:42:36;4.38;;;2.70;;
11998;SDS011;40817;51.520;9.954;2022-08-19T05:45:05;6.28;;;2.75;;
11998;SDS011;40817;51.520;9.954;2022-08-19T05:47:35;7.03;;;3.25;;
11998;SDS011;40817;51.520;9.954;2022-08-19T05:50:04;6.78;;;2.50;;
11998;SDS011;40817;51.520;9.954;2022-08-19T05:52:32;7.18;;;2.38;;
11998;SDS011;40817;51.520;9.954;2022-08-19T05:55:03;5.47;;;2.30;;
11998;SDS011;40817;51.520;9.954;2022-08-19T05:57:34;3.47;;;2.30;;
11998;SDS011;40817;51.520;9.954;2022-08-19T06:00:02;3.85;;;2.17;;
11998;SDS011;40817;51.520;9.954;2022-08-19T06:02:34;4.00;;;2.08;;
11998;SDS011;40817;51.520;9.954;2022-08-19T06:05:02;4.65;;;2.38;;
11998;SDS011;40817;51.520;9.954;2022-08-19T06:07:34;5.75;;;3.13;;
11998;SDS011;40817;51.520;9.954;2022-08-19T06:10:03;4.82;;;2.80;;
11998;SDS011;40817;51.520;9.954;2022-08-19T06:12:36;4.35;;;2.00;;
11998;SDS011;40817;51.520;9.954;2022-08-19T06:15:06;4.43;;;2.30;;
11998;SDS011;40817;51.520;9.954;2022-08-19T06:17:38;4.10;;;2.55;;
11998;SDS011;40817;51.520;9.954;2022-08-19T06:20:08;4.53;;;2.60;;
11998;SDS011;40817;51.520;9.954;2022-08-19T06:22:40;3.30;;;2.40;;
11998;SDS011;40817;51.520;9.954;2022-08-19T06:25:13;5.05;;;2.20;;
11998;SDS011;40817;51.520;9.954;2022-08-19T06:27:43;5.22;;;2.45;;
11998;SDS011;40817;51.520;9.954;2022-08-19T06:30:11;7.80;;;2.60;;
11998;SDS011;40817;51.520;9.954;2022-08-19T06:32:40;4.20;;;2.17;;
11998;SDS011;40817;51.520;9.954;2022-08-19T06:35:08;3.65;;;2.58;;
11998;SDS011;40817;51.520;9.954;2022-08-19T06:37:36;6.30;;;2.10;;
11998;SDS011;40817;51.520;9.954;2022-08-19T06:40:04;2.58;;;1.83;;
11998;SDS011;40817;51.520;9.954;2022-08-19T06:42:37;5.13;;;2.15;;
11998;SDS011;40817;51.520;9.954;2022-08-19T06:45:06;7.00;;;2.67;;
11998;SDS011;40817;51.520;9.954;2022-08-19T06:47:35;4.03;;;2.28;;
11998;SDS011;40817;51.520;9.954;2022-08-19T06:50:03;4.75;;;2.30;;
11998;SDS011;40817;51.520;9.954;2022-08-19T06:52:33;4.95;;;2.00;;
11998;SDS011;40817;51.520;9.954;2022-08-19T06:55:02;3.63;;;2.25;;
11998;SDS011;40817;51.520;9.954;2022-08-19T06:57:32;3.40;;;1.90;;
11998;SDS011;40817;51.520;9.954;2022-08-19T07:00:02;4.63;;;1.98;;
11998;SDS011;40817;51.520;9.954;2022-08-19T07:02:33;4.03;;;2.00;;
11998;SDS011;40817;51.520;9.954;2022-08-19T07:05:02;4.25;;;2.40;;
11998;SDS011;40817;51.520;9.954;2022-08-19T07:07:32;4.93;;;2.47;;
11998;SDS011;40817;51.520;9.954;2022-08-19T07:10:03;10.30;;;2.95;;
11998;SDS011;40817;51.520;9.954;2022-08-19T07:12:33;5.18;;;2.05;;
11998;SDS011;40817;51.520;9.954;2022-08-19T07:15:02;3.90;;;2.28;;
11998;SDS011;40817;51.520;9.954;2022-08-19T07:17:31;3.85;;;2.15;;
11998;SDS011;40817;51.520;9.954;2022-08-19T07:20:00;4.15;;;2.30;;
11998;SDS011;40817;51.520;9.954;2022-08-19T07:22:27;4.70;;;2.05;;
11998;SDS011;40817;51.520;9.954;2022-08-19T07:24:56;3.03;;;2.00;;
11998;SDS011;40817;51.520;9.954;2022-08-19T07:27:23;3.58;;;2.28;;
11998;SDS011;40817;51.520;9.954;2022-08-19T07:29:52;4.20;;;1.88;;
11998;SDS011;40817;51.520;9.954;2022-08-19T07:32:21;3.67;;;1.88;;
11998;SDS011;40817;51.520;9.954;2022-08-19T07:34:51;2.75;;;1.88;;
11998;SDS011;40817;51.520;9.954;2022-08-19T07:37:18;5.13;;;2.53;;
11998;SDS011;40817;51.520;9.954;2022-08-19T07:39:46;7.18;;;2.55;;
11998;SDS011;40817;51.520;9.954;2022-08-19T07:42:14;3.08;;;2.10;;
11998;SDS011;40817;51.520;9.954;2022-08-19T07:44:43;2.65;;;2.00;;
11998;SDS011;40817;51.520;9.954;2022-08-19T07:47:10;3.67;;;2.28;;
11998;SDS011;40817;51.520;9.954;2022-08-19T07:49:42;3.83;;;2.30;;
11998;SDS011;40817;51.520;9.954;2022-08-19T07:52:09;6.20;;;2.40;;
11998;SDS011;40817;51.520;9.954;2022-08-19T07:54:38;3.58;;;2.13;;
11998;SDS011;40817;51.520;9.954;2022-08-19T07:57:06;2.97;;;1.98;;
11998;SDS011;40817;51.520;9.954;2022-08-19T07:59:35;4.25;;;2.20;;
11998;SDS011;40817;51.520;9.954;2022-08-19T08:02:03;4.20;;;2.10;;
11998;SDS011;40817;51.520;9.954;2022-08-19T08:04:31;3.58;;;2.25;;
11998;SDS011;40817;51.520;9.954;2022-08-19T08:07:18;7.05;;;2.83;;
11998;SDS011;40817;51.520;9.954;2022-08-19T08:10:04;5.47;;;2.60;;
11998;SDS011;40817;51.520;9.954;2022-08-19T08:12:35;6.57;;;2.50;;
11998;SDS011;40817;51.520;9.954;2022-08-19T08:15:08;3.85;;;2.15;;
11998;SDS011;40817;51.520;9.954;2022-08-19T08:17:44;3.58;;;2.28;;
11998;SDS011;40817;51.520;9.954;2022-08-19T08:20:12;4.43;;;1.85;;
11998;SDS011;40817;51.520;9.954;2022-08-19T08:22:44;3.08;;;2.08;;
11998;SDS011;40817;51.520;9.954;2022-08-19T08:25:31;5.28;;;2.28;;
11998;SDS011;40817;51.520;9.954;2022-08-19T08:28:00;3.15;;;2.00;;
11998;SDS011;40817;51.520;9.954;2022-08-19T08:30:30;4.95;;;2.40;;
11998;SDS011;40817;51.520;9.954;2022-08-19T08:33:00;5.60;;;2.78;;
11998;SDS011;40817;51.520;9.954;2022-08-19T08:35:28;4.45;;;2.22;;
11998;SDS011;40817;51.520;9.954;2022-08-19T08:37:57;6.15;;;2.47;;
11998;SDS011;40817;51.520;9.954;2022-08-19T08:40:27;4.18;;;2.53;;
11998;SDS011;40817;51.520;9.954;2022-08-19T08:43:06;3.20;;;2.03;;
11998;SDS011;40817;51.520;9.954;2022-08-19T08:45:56;4.60;;;2.35;;
11998;SDS011;40817;51.520;9.954;2022-08-19T08:48:32;3.60;;;2.00;;
11998;SDS011;40817;51.520;9.954;2022-08-19T08:51:10;3.72;;;2.33;;
11998;SDS011;40817;51.520;9.954;2022-08-19T08:53:45;4.00;;;2.00;;
11998;SDS011;40817;51.520;9.954;2022-08-19T08:56:14;4.47;;;2.03;;
11998;SDS011;40817;51.520;9.954;2022-08-19T08:58:46;3.38;;;2.38;;
11998;SDS011;40817;51.520;9.954;2022-08-19T09:01:26;4.15;;;2.10;;
11998;SDS011;40817;51.520;9.954;2022-08-19T09:03:54;3.45;;;1.92;;
11998;SDS011;40817;51.520;9.954;2022-08-19T09:06:23;6.13;;;2.83;;
11998;SDS011;40817;51.520;9.954;2022-08-19T09:14:34;5.43;;;2.22;;
11998;SDS011;40817;51.520;9.954;2022-08-19T09:17:12;3.72;;;2.17;;
11998;SDS011;40817;51.520;9.954;2022-08-19T09:19:51;3.67;;;2.17;;
11998;SDS011;40817;51.520;9.954;2022-08-19T09:22:23;3.88;;;2.20;;
11998;SDS011;40817;51.520;9.954;2022-08-19T09:24:53;3.95;;;1.70;;
11998;SDS011;40817;51.520;9.954;2022-08-19T09:27:22;3.25;;;2.05;;
11998;SDS011;40817;51.520;9.954;2022-08-19T09:29:52;3.95;;;1.92;;
11998;SDS011;40817;51.520;9.954;2022-08-19T09:32:21;4.53;;;2.17;;
11998;SDS011;40817;51.520;9.954;2022-08-19T09:34:51;3.45;;;2.10;;
11998;SDS011;40817;51.520;9.954;2022-08-19T09:37:19;3.80;;;2.00;;
11998;SDS011;40817;51.520;9.954;2022-08-19T09:39:48;5.47;;;2.33;;
11998;SDS011;40817;51.520;9.954;2022-08-19T09:42:17;4.75;;;2.20;;
11998;SDS011;40817;51.520;9.954;2022-08-19T09:44:45;3.50;;;2.00;;
11998;SDS011;40817;51.520;9.954;2022-08-19T09:47:13;3.25;;;2.00;;
11998;SDS011;40817;51.520;9.954;2022-08-19T09:49:41;4.03;;;2.20;;
11998;SDS011;40817;51.520;9.954;2022-08-19T09:52:09;4.18;;;2.00;;
11998;SDS011;40817;51.520;9.954;2022-08-19T09:54:37;4.25;;;2.05;;
11998;SDS011;40817;51.520;9.954;2022-08-19T09:57:05;3.25;;;2.00;;
11998;SDS011;40817;51.520;9.954;2022-08-19T09:59:34;3.53;;;2.05;;
11998;SDS011;40817;51.520;9.954;2022-08-19T10:02:02;3.67;;;1.90;;
11998;SDS011;40817;51.520;9.954;2022-08-19T10:04:30;3.00;;;1.98;;
11998;SDS011;40817;51.520;9.954;2022-08-19T10:07:11;3.47;;;1.70;;
11998;SDS011;40817;51.520;9.954;2022-08-19T10:09:39;2.10;;;1.48;;
11998;SDS011;40817;51.520;9.954;2022-08-19T10:12:07;2.45;;;1.83;;
11998;SDS011;40817;51.520;9.954;2022-08-19T10:14:36;5.28;;;2.50;;
11998;SDS011;40817;51.520;9.954;2022-08-19T10:17:04;5.38;;;2.40;;
11998;SDS011;40817;51.520;9.954;2022-08-19T10:19:32;4.82;;;2.50;;
11998;SDS011;40817;51.520;9.954;2022-08-19T10:22:04;3.40;;;1.83;;
11998;SDS011;40817;51.520;9.954;2022-08-19T10:24:33;4.07;;;1.85;;
11998;SDS011;40817;51.520;9.954;2022-08-19T10:27:01;5.75;;;2.17;;
11998;SDS011;40817;51.520;9.954;2022-08-19T10:29:31;5.00;;;2.10;;
11998;SDS011;40817;51.520;9.954;2022-08-19T10:32:01;3.72;;;1.83;;
11998;SDS011;40817;51.520;9.954;2022-08-19T10:34:34;2.60;;;2.10;;
11998;SDS011;40817;51.520;9.954;2022-08-19T10:37:03;3.58;;;1.92;;
11998;SDS011;40817;51.520;9.954;2022-08-19T10:39:33;3.35;;;1.70;;
11998;SDS011;40817;51.520;9.954;2022-08-19T10:42:04;5.65;;;2.35;;
11998;SDS011;40817;51.520;9.954;2022-08-19T10:44:35;4.57;;;1.80;;
11998;SDS011;40817;51.520;9.954;2022-08-19T10:47:04;3.20;;;1.70;;
11998;SDS011;40817;51.520;9.954;2022-08-19T10:49:32;2.95;;;1.90;;
11998;SDS011;40817;51.520;9.954;2022-08-19T10:52:21;4.65;;;1.73;;
11998;SDS011;40817;51.520;9.954;2022-08-19T10:54:59;3.60;;;1.52;;
11998;SDS011;40817;51.520;9.954;2022-08-19T10:57:45;4.75;;;1.70;;
11998;SDS011;40817;51.520;9.954;2022-08-19T11:00:13;4.10;;;2.15;;
11998;SDS011;40817;51.520;9.954;2022-08-19T11:02:42;2.83;;;1.40;;
11998;SDS011;40817;51.520;9.954;2022-08-19T11:05:11;3.85;;;1.80;;
11998;SDS011;40817;51.520;9.954;2022-08-19T11:07:40;3.70;;;1.50;;
11998;SDS011;40817;51.520;9.954;2022-08-19T11:10:10;3.47;;;1.67;;
11998;SDS011;40817;51.520;9.954;2022-08-19T11:12:44;3.50;;;1.58;;
11998;SDS011;40817;51.520;9.954;2022-08-19T11:15:13;5.45;;;1.90;;
11998;SDS011;40817;51.520;9.954;2022-08-19T11:17:43;2.67;;;1.27;;
11998;SDS011;40817;51.520;9.954;2022-08-19T11:20:12;5.72;;;1.60;;
11998;SDS011;40817;51.520;9.954;2022-08-19T11:22:42;2.45;;;1.50;;
11998;SDS011;40817;51.520;9.954;2022-08-19T11:25:10;6.78;;;1.55;;
11998;SDS011;40817;51.520;9.954;2022-08-19T11:27:39;3.33;;;1.60;;
11998;SDS011;40817;51.520;9.954;2022-08-19T11:30:09;3.45;;;1.40;;
11998;SDS011;40817;51.520;9.954;2022-08-19T11:32:40;2.55;;;1.50;;
11998;SDS011;40817;51.520;9.954;2022-08-19T11:35:09;2.67;;;1.50;;
11998;SDS011;40817;51.520;9.954;2022-08-19T11:37:37;2.58;;;1.13;;
11998;SDS011;40817;51.520;9.954;2022-08-19T11:40:06;2.08;;;1.20;;
11998;SDS011;40817;51.520;9.954;2022-08-19T11:42:36;3.13;;;1.20;;
11998;SDS011;40817;51.520;9.954;2022-08-19T11:45:22;3.92;;;1.38;;
11998;SDS011;40817;51.520;9.954;2022-08-19T11:47:50;2.28;;;1.10;;
11998;SDS011;40817;51.520;9.954;2022-08-19T11:50:19;3.40;;;1.48;;
11998;SDS011;40817;51.520;9.954;2022-08-19T11:52:50;2.53;;;1.10;;
11998;SDS011;40817;51.520;9.954;2022-08-19T11:55:22;1.60;;;1.10;;
11998;SDS011;40817;51.520;9.954;2022-08-19T11:57:50;2.65;;;1.40;;
11998;SDS011;40817;51.520;9.954;2022-08-19T12:00:18;2.28;;;1.33;;
11998;SDS011;40817;51.520;9.954;2022-08-19T12:02:46;2.75;;;1.17;;
11998;SDS011;40817;51.520;9.954;2022-08-19T12:05:14;2.45;;;1.45;;
11998;SDS011;40817;51.520;9.954;2022-08-19T12:07:44;2.78;;;1.42;;
11998;SDS011;40817;51.520;9.954;2022-08-19T12:10:11;3.30;;;1.48;;
11998;SDS011;40817;51.520;9.954;2022-08-19T12:12:39;3.35;;;1.38;;
11998;SDS011;40817;51.520;9.954;2022-08-19T12:15:08;2.42;;;1.20;;
11998;SDS011;40817;51.520;9.954;2022-08-19T12:17:37;2.78;;;1.10;;
11998;SDS011;40817;51.520;9.954;2022-08-19T12:20:05;4.30;;;1.40;;
11998;SDS011;40817;51.520;9.954;2022-08-19T12:22:35;2.88;;;1.40;;
11998;SDS011;40817;51.520;9.954;2022-08-19T12:25:06;1.85;;;1.17;;
11998;SDS011;40817;51.520;9.954;2022-08-19T12:27:36;1.88;;;1.33;;
11998;SDS011;40817;51.520;9.954;2022-08-19T12:30:06;1.60;;;1.10;;
11998;SDS011;40817;51.520;9.954;2022-08-19T12:32:38;2.38;;;1.38;;
11998;SDS011;40817;51.520;9.954;2022-08-19T12:35:08;2.33;;;1.30;;
11998;SDS011;40817;51.520;9.954;2022-08-19T12:37:37;5.00;;;1.00;;
11998;SDS011;40817;51.520;9.954;2022-08-19T12:40:09;4.32;;;1.15;;
11998;SDS011;40817;51.520;9.954;2022-08-19T12:42:38;2.40;;;1.40;;
11998;SDS011;40817;51.520;9.954;2022-08-19T12:45:08;1.58;;;1.20;;
11998;SDS011;40817;51.520;9.954;2022-08-19T12:47:41;2.40;;;1.17;;
11998;SDS011;40817;51.520;9.954;2022-08-19T12:50:08;2.92;;;1.48;;
11998;SDS011;40817;51.520;9.954;2022-08-19T12:52:36;1.88;;;1.10;;
11998;SDS011;40817;51.520;9.954;2022-08-19T12:55:06;2.60;;;1.13;;
11998;SDS011;40817;51.520;9.954;2022-08-19T12:57:37;2.22;;;1.30;;
11998;SDS011;40817;51.520;9.954;2022-08-19T13:00:06;3.38;;;1.30;;
11998;SDS011;40817;51.520;9.954;2022-08-19T13:02:40;2.83;;;1.25;;
11998;SDS011;40817;51.520;9.954;2022-08-19T13:05:12;3.97;;;1.48;;
11998;SDS011;40817;51.520;9.954;2022-08-19T13:07:45;2.05;;;1.30;;
11998;SDS011;40817;51.520;9.954;2022-08-19T13:10:15;2.58;;;1.10;;
11998;SDS011;40817;51.520;9.954;2022-08-19T13:12:46;2.58;;;1.27;;
11998;SDS011;40817;51.520;9.954;2022-08-19T13:15:18;1.67;;;1.08;;
11998;SDS011;40817;51.520;9.954;2022-08-19T13:17:50;2.53;;;1.30;;
11998;SDS011;40817;51.520;9.954;2022-08-19T13:20:21;2.28;;;1.50;;
11998;SDS011;40817;51.520;9.954;2022-08-19T13:23:03;2.47;;;1.17;;
11998;SDS011;40817;51.520;9.954;2022-08-19T13:25:32;5.35;;;1.30;;
11998;SDS011;40817;51.520;9.954;2022-08-19T13:28:02;2.03;;;1.13;;
11998;SDS011;40817;51.520;9.954;2022-08-19T13:30:31;2.83;;;1.10;;
11998;SDS011;40817;51.520;9.954;2022-08-19T13:33:17;2.23;;;1.07;;
11998;SDS011;40817;51.520;9.954;2022-08-19T13:35:46;2.03;;;1.40;;
11998;SDS011;40817;51.520;9.954;2022-08-19T13:38:22;2.47;;;1.23;;
11998;SDS011;40817;51.520;9.954;2022-08-19T13:40:53;1.98;;;1.05;;
11998;SDS011;40817;51.520;9.954;2022-08-19T13:43:22;1.58;;;1.10;;
11998;SDS011;40817;51.520;9.954;2022-08-19T13:45:53;2.28;;;1.30;;
11998;SDS011;40817;51.520;9.954;2022-08-19T13:48:22;1.80;;;1.15;;
11998;SDS011;40817;51.520;9.954;2022-08-19T13:50:52;3.45;;;1.20;;
11998;SDS011;40817;51.520;9.954;2022-08-19T13:53:20;3.00;;;1.40;;
11998;SDS011;40817;51.520;9.954;2022-08-19T13:55:48;1.58;;;0.98;;
11998;SDS011;40817;51.520;9.954;2022-08-19T13:58:20;3.08;;;1.23;;
11998;SDS011;40817;51.520;9.954;2022-08-19T14:00:48;2.78;;;1.10;;
11998;SDS011;40817;51.520;9.954;2022-08-19T14:03:16;2.05;;;1.17;;
11998;SDS011;40817;51.520;9.954;2022-08-19T14:05:46;2.55;;;1.50;;
11998;SDS011;40817;51.520;9.954;2022-08-19T14:08:14;1.52;;;1.00;;
11998;SDS011;40817;51.520;9.954;2022-08-19T14:10:42;3.15;;;1.20;;
11998;SDS011;40817;51.520;9.954;2022-08-19T14:13:13;1.80;;;1.20;;
11998;SDS011;40817;51.520;9.954;2022-08-19T14:15:46;2.83;;;1.20;;
11998;SDS011;40817;51.520;9.954;2022-08-19T14:18:15;2.53;;;1.40;;
11998;SDS011;40817;51.520;9.954;2022-08-19T14:20:45;3.47;;;1.33;;
11998;SDS011;40817;51.520;9.954;2022-08-19T14:23:13;1.88;;;1.17;;
11998;SDS011;40817;51.520;9.954;2022-08-19T14:25:41;2.42;;;1.50;;
11998;SDS011;40817;51.520;9.954;2022-08-19T14:28:10;2.72;;;1.20;;
11998;SDS011;40817;51.520;9.954;2022-08-19T14:30:38;2.83;;;1.50;;
11998;SDS011;40817;51.520;9.954;2022-08-19T14:33:07;2.78;;;1.60;;
11998;SDS011;40817;51.520;9.954;2022-08-19T14:35:35;2.20;;;1.35;;
11998;SDS011;40817;51.520;9.954;2022-08-19T14:38:04;3.83;;;1.48;;
11998;SDS011;40817;51.520;9.954;2022-08-19T14:40:41;2.80;;;1.40;;
11998;SDS011;40817;51.520;9.954;2022-08-19T14:43:09;2.38;;;1.35;;
11998;SDS011;40817;51.520;9.954;2022-08-19T14:45:37;2.80;;;1.40;;
11998;SDS011;40817;51.520;9.954;2022-08-19T14:48:07;2.60;;;1.45;;
11998;SDS011;40817;51.520;9.954;2022-08-19T14:50:36;3.67;;;1.40;;
11998;SDS011;40817;51.520;9.954;2022-08-19T14:53:04;3.33;;;1.58;;
11998;SDS011;40817;51.520;9.954;2022-08-19T14:55:35;2.38;;;1.60;;
11998;SDS011;40817;51.520;9.954;2022-08-19T14:58:03;1.83;;;1.55;;
11998;SDS011;40817;51.520;9.954;2022-08-19T15:00:31;3.55;;;1.67;;
11998;SDS011;40817;51.520;9.954;2022-08-19T15:02:58;3.08;;;1.40;;
11998;SDS011;40817;51.520;9.954;2022-08-19T15:05:27;2.33;;;1.40;;
11998;SDS011;40817;51.520;9.954;2022-08-19T15:07:55;3.00;;;1.60;;
11998;SDS011;40817;51.520;9.954;2022-08-19T15:10:22;3.00;;;1.20;;